North Port, Florida
Current Conditions -  °F | °C
As of 4:35 AM on Monday 24 Nov 2014 (Local Time) from KVNC Reporting Station
Moderate Fog Moderate Fog  
Wind Chill: 73°   Ceiling: 200
Heat Index: 73°   Visibility: 0.25mi
Dew Point: 73°   Wind: 10mph
Humidity: 100%   Direction: 170°S
Pressure: 29.93"   Gusts: 17mph
Location:  27.05°N, 82.23°W
Report Text: KVNC 240935Z AUTO 17009G15KT 1/4SM FG OVC002 23/23 A2993 RMK AO2 TSNO
Loading
Personal Weather Stations






























Interactive Weather Map New forecast layout! Learn more

10-Day Weather Forecast

Advertisements
Track Severe Weather on mobile